createdAt,value
2017-12-02T00:00:26.674Z,61.50
2017-12-02T00:02:52.532Z,63.00
2017-12-02T00:05:18.356Z,66.37
2017-12-02T00:07:44.190Z,60.50
2017-12-02T00:10:09.982Z,62.27
2017-12-02T00:12:35.778Z,73.03
2017-12-02T00:15:01.615Z,64.70
2017-12-02T00:17:27.443Z,62.60
2017-12-02T00:19:53.272Z,65.90
2017-12-02T00:22:19.120Z,67.53
2017-12-02T00:24:44.945Z,55.57
2017-12-02T00:27:10.772Z,59.20
2017-12-02T00:29:41.678Z,62.70
2017-12-02T00:32:07.477Z,58.97
2017-12-02T00:34:34.175Z,54.13
2017-12-02T00:37:00.013Z,60.45
2017-12-02T00:39:28.978Z,62.00
2017-12-02T00:41:54.837Z,59.30
2017-12-02T00:44:24.156Z,48.50
2017-12-02T00:46:49.988Z,54.03
2017-12-02T00:49:15.777Z,47.73
2017-12-02T00:51:41.647Z,41.53
2017-12-02T00:54:07.450Z,47.10
2017-12-02T00:56:36.559Z,47.00
2017-12-02T00:59:02.363Z,53.72
2017-12-02T01:01:29.911Z,51.03
2017-12-02T01:03:55.725Z,50.38
2017-12-02T01:08:52.261Z,54.08
2017-12-02T01:11:20.013Z,59.50
2017-12-02T01:13:45.864Z,50.00
2017-12-02T01:16:15.425Z,53.60
2017-12-02T01:18:41.280Z,59.38
2017-12-02T01:21:10.207Z,55.43
2017-12-02T01:23:36.036Z,58.00
2017-12-02T01:26:01.887Z,56.07
2017-12-02T01:28:27.693Z,55.13
2017-12-02T01:30:53.546Z,50.37
2017-12-02T01:33:21.140Z,55.80
2017-12-02T01:35:46.931Z,53.85
2017-12-02T01:38:16.751Z,52.87
2017-12-02T01:40:42.520Z,56.28
2017-12-02T01:43:11.864Z,55.13
2017-12-02T01:45:37.662Z,52.38
2017-12-02T01:48:05.242Z,52.17
2017-12-02T01:50:31.073Z,55.10
2017-12-02T01:53:00.816Z,53.60
2017-12-02T01:55:26.592Z,51.33
2017-12-02T01:57:54.444Z,54.20
2017-12-02T02:00:20.239Z,47.53
2017-12-02T02:02:46.093Z,63.57
2017-12-02T02:05:11.948Z,51.63
2017-12-02T02:07:38.514Z,48.30
2017-12-02T02:10:07.351Z,52.40
2017-12-02T02:12:33.107Z,53.25
2017-12-02T02:15:00.635Z,48.37
2017-12-02T02:17:26.387Z,51.75
2017-12-02T02:19:52.829Z,55.90
2017-12-02T02:22:18.611Z,54.25
2017-12-02T02:24:44.379Z,71.53
2017-12-02T02:27:13.508Z,63.70
2017-12-02T02:29:39.355Z,53.50
2017-12-02T02:32:07.017Z,52.13
2017-12-02T02:34:32.861Z,57.03
2017-12-02T02:37:01.900Z,55.20
2017-12-02T02:39:27.687Z,48.17
2017-12-02T02:41:57.058Z,57.17
2017-12-02T02:44:22.886Z,64.18
2017-12-02T02:46:51.194Z,57.17
2017-12-02T02:49:17.023Z,54.72
2017-12-02T02:51:46.072Z,52.73
2017-12-02T02:54:11.869Z,53.75
2017-12-02T02:56:40.608Z,56.30
2017-12-02T02:59:06.392Z,71.35
2017-12-02T03:01:35.343Z,58.23
2017-12-02T03:04:01.125Z,64.43
2017-12-02T03:06:29.764Z,58.20
2017-12-02T03:08:55.593Z,54.17
2017-12-02T03:13:52.167Z,60.80
2017-12-02T03:16:18.032Z,51.40
2017-12-02T03:18:43.867Z,60.20
2017-12-02T03:21:09.717Z,51.73
2017-12-02T03:23:37.116Z,50.40
2017-12-02T03:26:02.958Z,55.22
2017-12-02T03:28:31.298Z,58.83
2017-12-02T03:30:57.149Z,67.07
2017-12-02T03:33:26.821Z,59.90
2017-12-02T03:35:52.651Z,56.40
2017-12-02T03:38:22.428Z,52.73
2017-12-02T03:40:48.252Z,57.78
2017-12-02T03:43:15.758Z,52.93
2017-12-02T03:45:41.606Z,49.95
2017-12-02T03:48:11.176Z,55.27
2017-12-02T03:50:36.986Z,61.60
2017-12-02T03:53:02.762Z,63.40
2017-12-02T03:55:28.666Z,54.53
2017-12-02T03:57:54.482Z,53.80
2017-12-02T04:00:23.489Z,51.50
2017-12-02T04:02:49.398Z,59.42
2017-12-02T04:05:17.044Z,46.67
2017-12-02T04:07:42.928Z,53.75
2017-12-02T04:10:11.332Z,55.00
2017-12-02T04:12:37.189Z,55.30
2017-12-02T04:15:06.958Z,50.47
2017-12-02T04:17:32.820Z,58.05
2017-12-02T04:20:02.413Z,55.17
2017-12-02T04:22:28.241Z,56.05
2017-12-02T04:24:55.965Z,46.63
2017-12-02T04:27:21.783Z,45.03
2017-12-02T04:29:47.642Z,48.43
2017-12-02T04:32:13.404Z,60.53
2017-12-02T04:34:39.252Z,70.43
2017-12-02T04:37:08.322Z,55.93
2017-12-02T04:39:34.127Z,51.37
2017-12-02T04:42:01.934Z,53.37
2017-12-02T04:44:27.787Z,49.65
2017-12-02T04:46:57.973Z,59.83
2017-12-02T04:49:23.836Z,49.05
2017-12-02T04:51:51.427Z,55.30
2017-12-02T04:54:17.277Z,53.65
2017-12-02T04:56:45.907Z,61.27
2017-12-02T04:59:11.713Z,50.63
2017-12-02T05:01:38.288Z,57.47
2017-12-02T05:04:04.106Z,45.47
2017-12-02T05:06:29.976Z,52.60
2017-12-02T05:08:57.732Z,46.83
2017-12-02T05:11:23.572Z,57.83
2017-12-02T05:13:52.882Z,52.40
2017-12-02T05:16:18.705Z,59.03
2017-12-02T05:18:48.173Z,60.67
2017-12-02T05:21:13.973Z,53.38
2017-12-02T05:23:43.234Z,56.93
2017-12-02T05:26:09.008Z,56.60
2017-12-02T05:28:37.662Z,59.37
2017-12-02T05:31:03.434Z,59.15
2017-12-02T05:33:32.734Z,58.20
2017-12-02T05:35:58.521Z,52.62
2017-12-02T05:38:26.101Z,54.20
2017-12-02T05:40:51.902Z,57.33
2017-12-02T05:43:17.748Z,58.67
2017-12-02T05:45:43.614Z,64.47
2017-12-02T05:48:09.456Z,49.23
2017-12-02T05:50:39.278Z,55.07
2017-12-02T05:53:05.091Z,55.25
2017-12-02T05:55:32.510Z,55.83
2017-12-02T05:57:58.400Z,49.78
2017-12-02T06:00:27.061Z,49.23
2017-12-02T06:02:52.912Z,51.45
2017-12-02T06:07:49.413Z,57.92
2017-12-02T06:10:16.795Z,56.83
2017-12-02T06:12:42.574Z,62.42
2017-12-02T06:15:11.616Z,61.60
2017-12-02T06:17:37.430Z,64.45
2017-12-02T06:20:03.240Z,60.67
2017-12-02T06:22:29.056Z,73.00
2017-12-02T06:24:54.929Z,73.30
2017-12-02T06:27:23.895Z,67.60
2017-12-02T06:29:49.756Z,54.60
2017-12-02T06:32:17.559Z,54.90
2017-12-02T06:34:43.383Z,65.43
2017-12-02T06:39:40.016Z,61.60
2017-12-02T06:42:07.424Z,223.37
2017-12-02T06:44:33.269Z,156.15
2017-12-02T06:47:02.591Z,142.87
2017-12-02T06:49:28.427Z,61.13
2017-12-02T06:51:58.226Z,51.40
2017-12-02T06:54:24.086Z,81.05
2017-12-02T06:56:49.913Z,119.50
2017-12-02T06:59:15.754Z,81.37
2017-12-02T07:01:41.658Z,55.30
2017-12-02T07:04:08.604Z,65.97
2017-12-02T07:06:34.485Z,107.07
2017-12-02T07:09:03.883Z,143.93
2017-12-02T07:11:29.729Z,77.70
2017-12-02T07:13:58.604Z,237.40
2017-12-02T07:16:24.493Z,178.85
2017-12-02T07:18:54.164Z,190.93
2017-12-02T07:21:20.037Z,142.75
2017-12-02T07:23:47.421Z,199.43
2017-12-02T07:26:13.250Z,81.47
2017-12-02T07:28:42.682Z,84.87
2017-12-02T07:31:08.532Z,71.68
2017-12-02T07:33:34.381Z,71.80
2017-12-02T07:36:00.196Z,65.70
2017-12-02T07:38:25.999Z,83.37
2017-12-02T07:40:53.629Z,70.37
2017-12-02T07:43:19.451Z,63.97
2017-12-02T07:45:49.048Z,70.80
2017-12-02T07:48:14.889Z,57.05
2017-12-02T07:50:43.088Z,60.80
2017-12-02T07:53:08.926Z,65.62
2017-12-02T07:55:37.693Z,71.47
2017-12-02T07:58:03.536Z,97.95
2017-12-02T08:03:00.220Z,65.78
2017-12-02T08:05:27.898Z,91.23
2017-12-02T08:07:53.748Z,100.60
2017-12-02T08:10:19.566Z,78.10
2017-12-02T08:12:45.435Z,106.83
2017-12-02T08:15:11.295Z,80.43
2017-12-02T08:17:38.850Z,76.83
2017-12-02T08:20:04.696Z,49.35
2017-12-02T08:22:33.383Z,52.97
2017-12-02T08:24:59.244Z,52.40
2017-12-02T08:29:55.948Z,54.70
2017-12-02T08:32:23.468Z,58.43
2017-12-02T08:34:49.254Z,72.95
2017-12-02T08:37:17.841Z,63.77
2017-12-02T08:39:43.722Z,60.42
2017-12-02T08:42:12.786Z,69.53
2017-12-02T08:44:38.663Z,60.47
2017-12-02T08:47:04.501Z,50.67
2017-12-02T08:49:30.294Z,44.50
2017-12-02T08:51:56.209Z,62.70
2017-12-02T08:54:25.342Z,47.00
2017-12-02T08:56:51.214Z,54.65
2017-12-02T08:59:20.738Z,58.47
2017-12-02T09:01:46.629Z,52.28
2017-12-02T09:04:14.001Z,41.23
2017-12-02T09:06:39.864Z,43.80
2017-12-02T09:09:09.692Z,43.17
2017-12-02T09:11:35.534Z,46.78
2017-12-02T09:14:03.292Z,41.07
2017-12-02T09:16:29.148Z,44.63
2017-12-02T09:18:58.432Z,40.13
2017-12-02T09:21:24.297Z,44.10
2017-12-02T09:23:50.160Z,40.03
2017-12-02T09:26:15.984Z,40.93
2017-12-02T09:28:41.836Z,36.03
2017-12-02T09:31:10.940Z,41.73
2017-12-02T09:33:36.769Z,40.53
2017-12-02T09:36:05.536Z,38.23
2017-12-02T09:38:31.349Z,41.05
2017-12-02T09:40:59.044Z,40.30
2017-12-02T09:43:24.950Z,49.30
2017-12-02T09:45:54.135Z,39.27
2017-12-02T09:48:19.950Z,39.58
2017-12-02T09:50:48.883Z,39.53
2017-12-02T09:53:14.702Z,35.30
2017-12-02T09:55:43.200Z,41.20
2017-12-02T09:58:09.045Z,36.67
2017-12-02T10:00:34.878Z,35.27
2017-12-02T10:03:00.703Z,25.10
2017-12-02T10:05:26.492Z,33.90
2017-12-02T10:07:55.575Z,33.27
2017-12-02T10:10:21.372Z,35.33
2017-12-02T10:12:50.864Z,31.40
2017-12-02T10:15:16.695Z,32.47
2017-12-02T10:17:44.471Z,36.10
2017-12-02T10:20:10.369Z,38.47
2017-12-02T10:22:39.491Z,36.20
2017-12-02T10:25:05.376Z,43.03
2017-12-02T10:27:34.223Z,32.67
2017-12-02T10:30:00.089Z,34.22
2017-12-02T10:32:29.365Z,34.13
2017-12-02T10:34:55.244Z,39.13
2017-12-02T10:37:21.099Z,34.30
2017-12-02T10:39:46.986Z,35.57
2017-12-02T10:42:12.829Z,31.90
2017-12-02T10:44:41.889Z,44.53
2017-12-02T10:47:07.743Z,37.53
2017-12-02T10:49:35.475Z,38.00
2017-12-02T10:52:01.317Z,33.72
2017-12-02T10:54:29.740Z,37.33
2017-12-02T10:56:55.544Z,31.60
2017-12-02T10:59:24.976Z,38.90
2017-12-02T11:01:50.836Z,51.42
2017-12-02T11:04:19.692Z,34.53
2017-12-02T11:06:45.557Z,37.95
2017-12-02T11:09:13.990Z,37.50
2017-12-02T11:11:39.762Z,37.08
2017-12-02T11:14:05.592Z,34.13
2017-12-02T11:16:31.408Z,26.83
2017-12-02T11:18:57.231Z,39.87
2017-12-02T11:21:26.240Z,34.43
2017-12-02T11:23:52.012Z,34.97
2017-12-02T11:26:20.302Z,39.73
2017-12-02T11:28:46.165Z,27.15
2017-12-02T11:31:15.800Z,30.57
2017-12-02T11:33:41.576Z,32.65
2017-12-02T11:36:11.066Z,34.10
2017-12-02T11:38:36.874Z,31.73
2017-12-02T11:41:04.525Z,28.77
2017-12-02T11:43:30.334Z,28.08
2017-12-02T11:45:59.522Z,27.77
2017-12-02T11:48:25.368Z,33.50
2017-12-02T11:50:51.188Z,30.80
2017-12-02T11:53:17.035Z,31.87
2017-12-02T11:55:42.998Z,35.23
2017-12-02T11:58:10.682Z,45.15
2017-12-02T12:00:36.545Z,39.13
2017-12-02T12:03:05.283Z,42.43
2017-12-02T12:05:31.091Z,44.72
2017-12-02T12:10:27.735Z,42.80
2017-12-02T12:12:55.197Z,41.50
2017-12-02T12:15:21.030Z,39.72
2017-12-02T12:17:51.112Z,36.93
2017-12-02T12:20:16.886Z,36.72
2017-12-02T12:22:44.627Z,38.93
2017-12-02T12:25:10.467Z,40.95
2017-12-02T12:27:36.270Z,43.53
2017-12-02T12:30:02.088Z,41.00
2017-12-02T12:32:27.892Z,36.90
2017-12-02T12:34:56.006Z,41.63
2017-12-02T12:37:21.861Z,37.55
2017-12-02T12:42:18.647Z,44.90
2017-12-02T12:44:45.736Z,42.37
2017-12-02T12:47:11.542Z,46.67
2017-12-02T12:49:41.830Z,44.17
2017-12-02T12:52:07.657Z,36.70
2017-12-02T12:54:35.366Z,37.23
2017-12-02T12:57:01.164Z,38.15
2017-12-02T12:59:31.035Z,33.00
2017-12-02T13:01:56.923Z,44.92
2017-12-02T13:04:22.954Z,37.87
2017-12-02T13:06:48.813Z,29.40
2017-12-02T13:09:14.594Z,34.33
2017-12-02T13:11:42.151Z,35.83
2017-12-02T13:14:07.972Z,29.15
2017-12-02T13:16:37.609Z,32.10
2017-12-02T13:19:03.392Z,38.15
2017-12-02T13:21:31.146Z,31.97
2017-12-02T13:23:56.990Z,35.15
2017-12-02T13:26:29.688Z,25.53
2017-12-02T13:28:55.549Z,34.35
2017-12-02T13:31:21.348Z,34.40
2017-12-02T13:33:47.166Z,26.53
2017-12-02T13:36:16.939Z,28.37
2017-12-02T13:38:42.758Z,22.50
2017-12-02T13:41:08.614Z,28.40
2017-12-02T13:43:34.422Z,23.60
2017-12-02T13:46:00.199Z,40.87
2017-12-02T13:48:27.145Z,29.40
2017-12-02T13:50:52.991Z,31.65
2017-12-02T13:53:21.883Z,38.03
2017-12-02T13:55:47.708Z,39.60
2017-12-02T13:58:17.008Z,32.13
2017-12-02T14:00:42.830Z,31.45
2017-12-02T14:03:12.326Z,27.63
2017-12-02T14:05:38.188Z,23.80
2017-12-02T14:08:07.303Z,29.53
2017-12-02T14:10:33.152Z,30.40
2017-12-02T14:13:00.488Z,35.30
2017-12-02T14:15:26.336Z,30.73
2017-12-02T14:17:52.114Z,29.90
2017-12-02T14:20:17.931Z,30.87
2017-12-02T14:22:43.748Z,27.70
2017-12-02T14:25:13.574Z,29.60
2017-12-02T14:27:39.366Z,30.80
2017-12-02T14:30:06.787Z,31.87
2017-12-02T14:32:32.586Z,35.67
2017-12-02T14:35:02.119Z,35.13
2017-12-02T14:37:27.956Z,37.38
2017-12-02T14:39:57.114Z,25.07
2017-12-02T14:42:22.908Z,29.37
2017-12-02T14:44:52.544Z,42.03
2017-12-02T14:47:18.372Z,41.20
2017-12-02T14:49:45.913Z,37.37
2017-12-02T14:52:11.714Z,49.22
2017-12-02T14:54:37.532Z,39.63
2017-12-02T14:57:03.357Z,49.07
2017-12-02T14:59:29.144Z,48.90
2017-12-02T15:01:58.776Z,44.23
2017-12-02T15:07:09.014Z,47.72
2017-12-02T15:09:34.805Z,43.17
2017-12-02T15:12:00.722Z,43.80
2017-12-02T15:14:26.450Z,43.80
2017-12-02T15:16:52.250Z,45.13
2017-12-02T15:19:18.031Z,48.93
2017-12-02T15:21:43.833Z,52.47
2017-12-02T15:24:09.705Z,46.83
2017-12-02T15:26:35.516Z,44.03
2017-12-02T15:29:01.336Z,48.10
2017-12-02T15:31:27.160Z,41.50
2017-12-02T15:33:52.980Z,46.30
2017-12-02T15:36:18.806Z,44.53
2017-12-02T15:38:44.623Z,47.97
2017-12-02T15:41:10.458Z,44.33
2017-12-02T15:43:37.694Z,48.93
2017-12-02T15:46:03.523Z,41.83
2017-12-02T15:48:32.168Z,53.93
2017-12-02T15:50:58.006Z,44.58
2017-12-02T15:53:27.372Z,46.17
2017-12-02T15:55:53.250Z,45.92
2017-12-02T15:58:22.635Z,50.33
2017-12-02T16:00:48.452Z,116.20
2017-12-02T16:03:16.366Z,147.13
2017-12-02T16:05:42.191Z,53.33
2017-12-02T16:08:08.004Z,48.90
2017-12-02T16:10:33.826Z,48.83
2017-12-02T16:12:59.705Z,55.13
2017-12-02T16:15:28.074Z,55.60
2017-12-02T16:17:53.936Z,67.50
2017-12-02T16:20:22.361Z,52.70
2017-12-02T16:22:48.176Z,53.40
2017-12-02T16:27:44.932Z,54.78
2017-12-02T16:30:12.534Z,47.57
2017-12-02T16:32:38.344Z,53.13
2017-12-02T16:35:07.352Z,48.43
2017-12-02T16:37:33.125Z,51.05
2017-12-02T16:40:02.386Z,46.60
2017-12-02T16:42:28.191Z,54.25
2017-12-02T16:44:54.042Z,49.80
2017-12-02T16:47:19.885Z,55.47
2017-12-02T16:49:45.739Z,56.07
2017-12-02T16:52:13.262Z,54.27
2017-12-02T16:54:39.073Z,48.60
2017-12-02T16:57:08.151Z,48.27
2017-12-02T16:59:33.997Z,52.00
2017-12-02T17:02:02.892Z,49.90
2017-12-02T17:04:28.747Z,55.63
2017-12-02T17:06:57.772Z,53.97
2017-12-02T17:09:23.659Z,58.86
2017-12-02T17:12:23.800Z,51.63
2017-12-02T17:14:49.634Z,58.90
2017-12-02T17:17:15.444Z,55.00
2017-12-02T17:19:41.262Z,42.67
2017-12-02T17:22:07.032Z,61.37
2017-12-02T17:24:32.882Z,53.87
2017-12-02T17:26:58.712Z,48.47
2017-12-02T17:29:24.559Z,55.30
2017-12-02T17:31:50.454Z,57.27
2017-12-02T17:34:16.279Z,53.00
2017-12-02T17:36:42.076Z,50.03
2017-12-02T17:39:08.492Z,48.30
2017-12-02T17:41:34.333Z,55.12
2017-12-02T17:44:03.639Z,47.10
2017-12-02T17:46:29.461Z,50.00
2017-12-02T17:48:58.741Z,56.93
2017-12-02T17:51:24.517Z,50.50
2017-12-02T17:53:53.602Z,60.13
2017-12-02T17:56:19.445Z,50.40
2017-12-02T17:58:47.459Z,48.17
2017-12-02T18:01:13.287Z,47.30
2017-12-02T18:03:39.187Z,52.70
2017-12-02T18:06:04.993Z,53.13
2017-12-02T18:08:30.803Z,52.63
2017-12-02T18:10:59.651Z,49.93
2017-12-02T18:13:25.464Z,49.58
2017-12-02T18:15:54.333Z,43.57
2017-12-02T18:18:20.162Z,51.78
2017-12-02T18:20:49.003Z,47.07
2017-12-02T18:23:14.801Z,45.05
2017-12-02T18:25:43.731Z,47.40
2017-12-02T18:28:09.632Z,54.78
2017-12-02T18:30:38.436Z,54.80
2017-12-02T18:33:04.265Z,54.45
2017-12-02T18:35:33.096Z,49.67
2017-12-02T18:37:58.931Z,52.42
2017-12-02T18:40:24.739Z,53.73
2017-12-02T18:42:50.546Z,51.90
2017-12-02T18:45:16.380Z,54.83
2017-12-02T18:47:45.946Z,45.23
2017-12-02T18:50:11.819Z,43.03
2017-12-02T18:52:39.605Z,57.00
2017-12-02T18:58:18.204Z,49.13
2017-12-02T19:00:44.022Z,50.85
2017-12-02T19:03:09.869Z,48.53
2017-12-02T19:05:35.742Z,51.40
2017-12-02T19:08:01.528Z,49.70
2017-12-02T19:10:27.415Z,46.97
2017-12-02T19:12:53.238Z,48.73
2017-12-02T19:15:19.046Z,47.80
2017-12-02T19:17:44.941Z,46.47
2017-12-02T19:20:10.761Z,47.47
2017-12-02T19:22:36.664Z,51.63
2017-12-02T19:25:02.535Z,46.40
2017-12-02T19:27:28.401Z,53.60
2017-12-02T19:29:54.256Z,46.37
2017-12-02T19:32:20.059Z,54.30
2017-12-02T19:34:45.935Z,48.80
2017-12-02T19:37:11.760Z,57.00
2017-12-02T19:39:37.622Z,53.23
2017-12-02T19:42:04.195Z,53.60
2017-12-02T19:44:30.033Z,61.00
2017-12-02T19:46:55.892Z,53.03
2017-12-02T19:49:24.956Z,56.53
2017-12-02T20:09:11.714Z,56.88
2017-12-02T20:23:27.852Z,58.25
2017-12-02T20:43:21.000Z,60.83
2017-12-02T20:45:46.846Z,48.78
2017-12-02T20:48:12.657Z,58.50
2017-12-02T20:50:38.479Z,51.90
2017-12-02T20:53:04.334Z,49.57
2017-12-02T20:55:30.214Z,50.33
2017-12-02T20:57:56.058Z,49.07
2017-12-02T21:00:21.909Z,52.30
2017-12-02T21:02:47.681Z,46.97
2017-12-02T21:05:13.614Z,50.30
2017-12-02T21:07:39.480Z,61.30
2017-12-02T21:10:05.318Z,52.27
2017-12-02T21:12:31.119Z,50.70
2017-12-02T21:14:56.971Z,55.43
2017-12-02T21:17:22.846Z,51.40
2017-12-02T21:19:48.712Z,59.13
2017-12-02T21:22:14.475Z,58.40
2017-12-02T21:24:40.330Z,48.60
2017-12-02T21:27:06.203Z,44.00
2017-12-02T21:29:32.061Z,51.50
2017-12-02T21:31:57.891Z,62.60
2017-12-02T21:34:24.866Z,61.30
2017-12-02T21:36:50.782Z,58.35
2017-12-02T21:39:20.643Z,51.97
2017-12-02T21:41:46.506Z,61.67
2017-12-02T21:44:12.417Z,54.10
2017-12-02T21:46:38.298Z,56.73
2017-12-02T21:49:04.200Z,48.20
2017-12-02T21:51:31.347Z,48.43
2017-12-02T21:56:49.808Z,50.65
2017-12-02T21:59:15.628Z,55.60
2017-12-02T22:01:41.479Z,61.70
2017-12-02T22:04:07.338Z,59.63
2017-12-02T22:06:33.185Z,64.77
2017-12-02T22:08:59.030Z,49.10
2017-12-02T22:11:24.967Z,50.10
2017-12-02T22:13:50.837Z,54.20
2017-12-02T22:16:16.665Z,54.23
2017-12-02T22:18:42.525Z,45.70
2017-12-02T22:21:08.396Z,44.50
2017-12-02T22:23:34.203Z,39.00
2017-12-02T22:26:00.079Z,49.37
2017-12-02T22:28:25.937Z,45.37
2017-12-02T22:30:51.719Z,52.93
2017-12-02T22:33:17.533Z,47.87
2017-12-02T22:35:43.384Z,53.63
2017-12-02T22:38:09.324Z,52.70
2017-12-02T22:40:35.193Z,47.13
2017-12-02T22:43:01.095Z,65.73
2017-12-02T22:45:26.952Z,58.47
2017-12-02T22:47:54.972Z,49.87
2017-12-02T22:50:20.783Z,56.33
2017-12-02T22:55:17.526Z,55.08
2017-12-02T23:00:38.889Z,50.20
2017-12-02T23:03:04.710Z,59.92
2017-12-02T23:05:30.555Z,55.53
2017-12-02T23:07:56.380Z,53.13
2017-12-02T23:10:22.220Z,47.43
2017-12-02T23:12:48.074Z,54.23
2017-12-02T23:15:13.984Z,52.23
2017-12-02T23:17:39.828Z,50.83
2017-12-02T23:20:05.704Z,51.17
2017-12-02T23:22:31.538Z,63.67
2017-12-02T23:24:57.356Z,70.97
2017-12-02T23:27:23.207Z,76.17
2017-12-02T23:29:49.113Z,63.50
2017-12-02T23:32:14.963Z,56.87
2017-12-02T23:34:40.819Z,51.17
2017-12-02T23:37:06.613Z,71.97
2017-12-02T23:39:32.468Z,78.23
2017-12-02T23:41:58.294Z,81.40
2017-12-02T23:44:24.170Z,83.20
2017-12-02T23:46:49.957Z,52.83
2017-12-02T23:49:15.807Z,65.97
2017-12-02T23:51:41.613Z,54.70
2017-12-02T23:54:07.509Z,61.90
2017-12-02T23:56:33.409Z,64.47
2017-12-02T23:58:59.278Z,53.63
